sensor_id;sensor_type;location;lat;lon;timestamp;temperature;humidity
30069;DHT22;16894;49.456;10.644;2023-04-24T00:02:07;11.00;99.90
30069;DHT22;16894;49.456;10.644;2023-04-24T00:04:36;11.00;99.90
30069;DHT22;16894;49.456;10.644;2023-04-24T00:07:05;11.00;99.90
30069;DHT22;16894;49.456;10.644;2023-04-24T00:09:32;11.00;99.90
30069;DHT22;16894;49.456;10.644;2023-04-24T00:11:57;10.90;99.90
30069;DHT22;16894;49.456;10.644;2023-04-24T00:14:23;10.90;99.90
30069;DHT22;16894;49.456;10.644;2023-04-24T00:16:48;10.90;99.90
30069;DHT22;16894;49.456;10.644;2023-04-24T00:19:14;10.90;99.90
30069;DHT22;16894;49.456;10.644;2023-04-24T00:21:40;10.90;99.90
30069;DHT22;16894;49.456;10.644;2023-04-24T00:24:06;10.90;99.90
30069;DHT22;16894;49.456;10.644;2023-04-24T00:26:31;10.90;99.90
30069;DHT22;16894;49.456;10.644;2023-04-24T00:28:57;10.80;99.90
30069;DHT22;16894;49.456;10.644;2023-04-24T00:31:22;10.80;99.90
30069;DHT22;16894;49.456;10.644;2023-04-24T00:33:48;10.80;99.90
30069;DHT22;16894;49.456;10.644;2023-04-24T00:36:13;10.80;99.90
30069;DHT22;16894;49.456;10.644;2023-04-24T00:38:39;10.80;99.90
30069;DHT22;16894;49.456;10.644;2023-04-24T00:41:04;10.80;99.90
30069;DHT22;16894;49.456;10.644;2023-04-24T00:43:30;10.70;99.90
30069;DHT22;16894;49.456;10.644;2023-04-24T00:45:56;10.80;99.90
30069;DHT22;16894;49.456;10.644;2023-04-24T00:48:22;10.80;99.90
30069;DHT22;16894;49.456;10.644;2023-04-24T00:50:48;10.80;99.90
30069;DHT22;16894;49.456;10.644;2023-04-24T00:53:13;10.80;99.90
30069;DHT22;16894;49.456;10.644;2023-04-24T00:55:39;10.70;99.90
30069;DHT22;16894;49.456;10.644;2023-04-24T00:58:05;10.70;99.90
30069;DHT22;16894;49.456;10.644;2023-04-24T01:00:31;10.70;99.90
30069;DHT22;16894;49.456;10.644;2023-04-24T01:02:57;10.70;99.90
30069;DHT22;16894;49.456;10.644;2023-04-24T01:05:23;10.70;99.90
30069;DHT22;16894;49.456;10.644;2023-04-24T01:07:48;10.70;99.90
30069;DHT22;16894;49.456;10.644;2023-04-24T01:10:14;10.70;99.90
30069;DHT22;16894;49.456;10.644;2023-04-24T01:12:40;10.70;99.90
30069;DHT22;16894;49.456;10.644;2023-04-24T01:15:06;10.70;99.90
30069;DHT22;16894;49.456;10.644;2023-04-24T01:17:32;10.70;99.90
30069;DHT22;16894;49.456;10.644;2023-04-24T01:19:59;10.70;99.90
30069;DHT22;16894;49.456;10.644;2023-04-24T01:22:25;10.80;99.90
30069;DHT22;16894;49.456;10.644;2023-04-24T01:24:51;10.80;99.90
30069;DHT22;16894;49.456;10.644;2023-04-24T01:27:16;10.80;99.90
30069;DHT22;16894;49.456;10.644;2023-04-24T01:29:42;10.80;99.90
30069;DHT22;16894;49.456;10.644;2023-04-24T01:32:07;10.80;99.90
30069;DHT22;16894;49.456;10.644;2023-04-24T01:34:33;10.70;99.90
30069;DHT22;16894;49.456;10.644;2023-04-24T01:36:59;10.70;99.90
30069;DHT22;16894;49.456;10.644;2023-04-24T01:39:25;10.60;99.90
30069;DHT22;16894;49.456;10.644;2023-04-24T01:41:51;10.60;99.90
30069;DHT22;16894;49.456;10.644;2023-04-24T01:44:18;10.50;99.90
30069;DHT22;16894;49.456;10.644;2023-04-24T01:46:43;10.50;99.90
30069;DHT22;16894;49.456;10.644;2023-04-24T01:49:09;10.50;99.90
30069;DHT22;16894;49.456;10.644;2023-04-24T01:51:35;10.50;99.90
30069;DHT22;16894;49.456;10.644;2023-04-24T01:54:01;10.50;99.90
30069;DHT22;16894;49.456;10.644;2023-04-24T01:56:27;10.40;99.90
30069;DHT22;16894;49.456;10.644;2023-04-24T01:58:54;10.40;99.90
30069;DHT22;16894;49.456;10.644;2023-04-24T02:01:20;10.40;99.90
30069;DHT22;16894;49.456;10.644;2023-04-24T02:03:46;10.30;99.90
30069;DHT22;16894;49.456;10.644;2023-04-24T02:06:11;10.30;99.90
30069;DHT22;16894;49.456;10.644;2023-04-24T02:08:37;10.30;99.90
30069;DHT22;16894;49.456;10.644;2023-04-24T02:11:02;10.30;99.90
30069;DHT22;16894;49.456;10.644;2023-04-24T02:13:28;10.30;99.90
30069;DHT22;16894;49.456;10.644;2023-04-24T02:15:53;10.40;99.90
30069;DHT22;16894;49.456;10.644;2023-04-24T02:18:19;10.40;99.90
30069;DHT22;16894;49.456;10.644;2023-04-24T02:20:45;10.30;99.90
30069;DHT22;16894;49.456;10.644;2023-04-24T02:23:10;10.30;99.90
30069;DHT22;16894;49.456;10.644;2023-04-24T02:25:36;10.30;99.90
30069;DHT22;16894;49.456;10.644;2023-04-24T02:28:01;10.30;99.90
30069;DHT22;16894;49.456;10.644;2023-04-24T02:30:28;10.20;99.90
30069;DHT22;16894;49.456;10.644;2023-04-24T02:32:53;10.20;99.90
30069;DHT22;16894;49.456;10.644;2023-04-24T02:35:19;10.20;99.90
30069;DHT22;16894;49.456;10.644;2023-04-24T02:37:45;10.20;99.90
30069;DHT22;16894;49.456;10.644;2023-04-24T02:40:10;10.20;99.90
30069;DHT22;16894;49.456;10.644;2023-04-24T02:42:36;10.20;99.90
30069;DHT22;16894;49.456;10.644;2023-04-24T02:45:01;10.20;99.90
30069;DHT22;16894;49.456;10.644;2023-04-24T02:47:27;10.10;99.90
30069;DHT22;16894;49.456;10.644;2023-04-24T02:49:53;10.10;99.90
30069;DHT22;16894;49.456;10.644;2023-04-24T02:52:18;10.10;99.90
30069;DHT22;16894;49.456;10.644;2023-04-24T02:54:44;10.10;99.90
30069;DHT22;16894;49.456;10.644;2023-04-24T02:57:09;10.10;99.90
30069;DHT22;16894;49.456;10.644;2023-04-24T02:59:35;10.00;99.90
30069;DHT22;16894;49.456;10.644;2023-04-24T03:02:00;10.00;99.90
30069;DHT22;16894;49.456;10.644;2023-04-24T03:04:26;10.00;99.90
30069;DHT22;16894;49.456;10.644;2023-04-24T03:06:52;9.90;99.90
30069;DHT22;16894;49.456;10.644;2023-04-24T03:09:20;9.90;99.90
30069;DHT22;16894;49.456;10.644;2023-04-24T03:11:45;9.90;99.90
30069;DHT22;16894;49.456;10.644;2023-04-24T03:14:11;9.90;99.90
30069;DHT22;16894;49.456;10.644;2023-04-24T03:16:36;9.90;99.90
30069;DHT22;16894;49.456;10.644;2023-04-24T03:19:02;9.90;99.90
30069;DHT22;16894;49.456;10.644;2023-04-24T03:21:27;9.80;99.90
30069;DHT22;16894;49.456;10.644;2023-04-24T03:23:53;9.80;99.90
30069;DHT22;16894;49.456;10.644;2023-04-24T03:26:19;9.70;99.90
30069;DHT22;16894;49.456;10.644;2023-04-24T03:28:45;9.80;99.90
30069;DHT22;16894;49.456;10.644;2023-04-24T03:31:10;9.80;99.90
30069;DHT22;16894;49.456;10.644;2023-04-24T03:33:36;9.70;99.90
30069;DHT22;16894;49.456;10.644;2023-04-24T03:36:01;9.70;99.90
30069;DHT22;16894;49.456;10.644;2023-04-24T03:38:27;9.70;99.90
30069;DHT22;16894;49.456;10.644;2023-04-24T03:40:53;9.70;99.90
30069;DHT22;16894;49.456;10.644;2023-04-24T03:43:18;9.60;99.90
30069;DHT22;16894;49.456;10.644;2023-04-24T03:45:44;9.60;99.90
30069;DHT22;16894;49.456;10.644;2023-04-24T03:48:09;9.60;99.90
30069;DHT22;16894;49.456;10.644;2023-04-24T03:50:35;9.50;99.90
30069;DHT22;16894;49.456;10.644;2023-04-24T03:53:00;9.40;99.90
30069;DHT22;16894;49.456;10.644;2023-04-24T03:55:26;9.40;99.90
30069;DHT22;16894;49.456;10.644;2023-04-24T03:57:51;9.40;99.90
30069;DHT22;16894;49.456;10.644;2023-04-24T04:00:17;9.40;99.90
30069;DHT22;16894;49.456;10.644;2023-04-24T04:02:43;9.50;99.90
30069;DHT22;16894;49.456;10.644;2023-04-24T04:05:09;9.50;99.90
30069;DHT22;16894;49.456;10.644;2023-04-24T04:07:35;9.50;99.90
30069;DHT22;16894;49.456;10.644;2023-04-24T04:10:00;9.50;99.90
30069;DHT22;16894;49.456;10.644;2023-04-24T04:12:26;9.50;99.90
30069;DHT22;16894;49.456;10.644;2023-04-24T04:14:51;9.50;99.90
30069;DHT22;16894;49.456;10.644;2023-04-24T04:17:17;9.50;99.90
30069;DHT22;16894;49.456;10.644;2023-04-24T04:19:43;9.50;99.90
30069;DHT22;16894;49.456;10.644;2023-04-24T04:22:08;9.50;99.90
30069;DHT22;16894;49.456;10.644;2023-04-24T04:24:34;9.50;99.90
30069;DHT22;16894;49.456;10.644;2023-04-24T04:27:03;9.50;99.90
30069;DHT22;16894;49.456;10.644;2023-04-24T04:29:30;9.50;99.90
30069;DHT22;16894;49.456;10.644;2023-04-24T04:31:56;9.60;99.90
30069;DHT22;16894;49.456;10.644;2023-04-24T04:34:22;9.60;99.90
30069;DHT22;16894;49.456;10.644;2023-04-24T04:36:48;9.70;99.90
30069;DHT22;16894;49.456;10.644;2023-04-24T04:39:14;9.70;99.90
30069;DHT22;16894;49.456;10.644;2023-04-24T04:41:40;9.70;99.90
30069;DHT22;16894;49.456;10.644;2023-04-24T04:44:06;9.80;99.90
30069;DHT22;16894;49.456;10.644;2023-04-24T04:46:34;9.70;99.90
30069;DHT22;16894;49.456;10.644;2023-04-24T04:49:02;9.70;99.90
30069;DHT22;16894;49.456;10.644;2023-04-24T04:51:28;9.70;99.90
30069;DHT22;16894;49.456;10.644;2023-04-24T04:53:55;9.70;99.90
30069;DHT22;16894;49.456;10.644;2023-04-24T04:56:20;9.70;99.90
30069;DHT22;16894;49.456;10.644;2023-04-24T04:58:47;9.60;99.90
30069;DHT22;16894;49.456;10.644;2023-04-24T05:01:12;9.60;99.90
30069;DHT22;16894;49.456;10.644;2023-04-24T05:03:38;9.60;99.90
30069;DHT22;16894;49.456;10.644;2023-04-24T05:06:03;9.60;99.90
30069;DHT22;16894;49.456;10.644;2023-04-24T05:08:29;9.60;99.90
30069;DHT22;16894;49.456;10.644;2023-04-24T05:10:55;9.60;99.90
30069;DHT22;16894;49.456;10.644;2023-04-24T05:13:20;9.70;99.90
30069;DHT22;16894;49.456;10.644;2023-04-24T05:15:46;9.70;99.90
30069;DHT22;16894;49.456;10.644;2023-04-24T05:18:11;9.80;99.90
30069;DHT22;16894;49.456;10.644;2023-04-24T05:20:37;9.80;99.90
30069;DHT22;16894;49.456;10.644;2023-04-24T05:23:02;9.90;99.90
30069;DHT22;16894;49.456;10.644;2023-04-24T05:25:28;9.90;99.90
30069;DHT22;16894;49.456;10.644;2023-04-24T05:27:53;10.00;99.90
30069;DHT22;16894;49.456;10.644;2023-04-24T05:30:19;10.10;99.90
30069;DHT22;16894;49.456;10.644;2023-04-24T05:32:45;10.10;99.90
30069;DHT22;16894;49.456;10.644;2023-04-24T05:35:11;10.20;99.90
30069;DHT22;16894;49.456;10.644;2023-04-24T05:37:37;10.30;99.90
30069;DHT22;16894;49.456;10.644;2023-04-24T05:40:03;10.30;99.90
30069;DHT22;16894;49.456;10.644;2023-04-24T05:42:30;10.40;99.90
30069;DHT22;16894;49.456;10.644;2023-04-24T05:44:57;10.40;99.90
30069;DHT22;16894;49.456;10.644;2023-04-24T05:47:22;10.40;99.90
30069;DHT22;16894;49.456;10.644;2023-04-24T05:49:48;10.50;99.90
30069;DHT22;16894;49.456;10.644;2023-04-24T05:52:14;10.60;99.90
30069;DHT22;16894;49.456;10.644;2023-04-24T05:54:39;10.70;99.90
30069;DHT22;16894;49.456;10.644;2023-04-24T05:57:05;10.80;99.90
30069;DHT22;16894;49.456;10.644;2023-04-24T05:59:33;10.90;99.90
30069;DHT22;16894;49.456;10.644;2023-04-24T06:01:59;11.00;99.90
30069;DHT22;16894;49.456;10.644;2023-04-24T06:04:24;11.00;99.90
30069;DHT22;16894;49.456;10.644;2023-04-24T06:06:50;10.80;99.90
30069;DHT22;16894;49.456;10.644;2023-04-24T06:09:21;10.60;99.90
30069;DHT22;16894;49.456;10.644;2023-04-24T06:11:47;10.40;99.90
30069;DHT22;16894;49.456;10.644;2023-04-24T06:14:12;10.30;99.90
30069;DHT22;16894;49.456;10.644;2023-04-24T06:16:39;10.30;99.90
30069;DHT22;16894;49.456;10.644;2023-04-24T06:19:08;10.20;99.90
30069;DHT22;16894;49.456;10.644;2023-04-24T06:21:33;10.10;99.90
30069;DHT22;16894;49.456;10.644;2023-04-24T06:23:59;10.00;99.90
30069;DHT22;16894;49.456;10.644;2023-04-24T06:26:26;10.00;99.90
30069;DHT22;16894;49.456;10.644;2023-04-24T06:28:52;10.00;99.90
30069;DHT22;16894;49.456;10.644;2023-04-24T06:31:19;10.00;99.90
30069;DHT22;16894;49.456;10.644;2023-04-24T06:33:45;10.10;99.90
30069;DHT22;16894;49.456;10.644;2023-04-24T06:36:10;10.30;99.90
30069;DHT22;16894;49.456;10.644;2023-04-24T06:38:36;10.40;99.90
30069;DHT22;16894;49.456;10.644;2023-04-24T06:41:01;10.40;99.90
30069;DHT22;16894;49.456;10.644;2023-04-24T06:43:28;10.50;99.90
30069;DHT22;16894;49.456;10.644;2023-04-24T06:45:54;10.70;99.90
30069;DHT22;16894;49.456;10.644;2023-04-24T06:48:19;10.90;99.90
30069;DHT22;16894;49.456;10.644;2023-04-24T06:50:45;11.10;99.90
30069;DHT22;16894;49.456;10.644;2023-04-24T06:53:12;11.30;99.90
30069;DHT22;16894;49.456;10.644;2023-04-24T06:55:39;11.50;99.90
30069;DHT22;16894;49.456;10.644;2023-04-24T06:58:05;11.50;99.90
30069;DHT22;16894;49.456;10.644;2023-04-24T07:00:31;11.40;99.90
30069;DHT22;16894;49.456;10.644;2023-04-24T07:02:56;11.40;99.90
30069;DHT22;16894;49.456;10.644;2023-04-24T07:05:22;11.30;99.90
30069;DHT22;16894;49.456;10.644;2023-04-24T07:07:48;11.30;99.90
30069;DHT22;16894;49.456;10.644;2023-04-24T07:10:15;11.10;99.90
30069;DHT22;16894;49.456;10.644;2023-04-24T07:12:40;11.00;99.90
30069;DHT22;16894;49.456;10.644;2023-04-24T07:15:06;11.10;99.90
30069;DHT22;16894;49.456;10.644;2023-04-24T07:17:33;11.10;99.90
30069;DHT22;16894;49.456;10.644;2023-04-24T07:19:59;11.00;99.90
30069;DHT22;16894;49.456;10.644;2023-04-24T07:22:24;10.90;99.90
30069;DHT22;16894;49.456;10.644;2023-04-24T07:24:50;11.10;99.90
30069;DHT22;16894;49.456;10.644;2023-04-24T07:27:15;11.20;99.90
30069;DHT22;16894;49.456;10.644;2023-04-24T07:29:41;11.30;99.90
30069;DHT22;16894;49.456;10.644;2023-04-24T07:32:07;11.30;99.90
30069;DHT22;16894;49.456;10.644;2023-04-24T07:34:33;11.30;99.90
30069;DHT22;16894;49.456;10.644;2023-04-24T07:36:58;11.30;99.90
30069;DHT22;16894;49.456;10.644;2023-04-24T07:39:24;11.20;99.90
30069;DHT22;16894;49.456;10.644;2023-04-24T07:41:50;11.10;99.90
30069;DHT22;16894;49.456;10.644;2023-04-24T07:44:15;11.20;99.90
30069;DHT22;16894;49.456;10.644;2023-04-24T07:46:41;11.20;99.90
30069;DHT22;16894;49.456;10.644;2023-04-24T07:49:06;11.20;99.90
30069;DHT22;16894;49.456;10.644;2023-04-24T07:51:32;11.20;99.90
30069;DHT22;16894;49.456;10.644;2023-04-24T07:54:04;11.30;99.90
30069;DHT22;16894;49.456;10.644;2023-04-24T07:56:30;11.40;99.90
30069;DHT22;16894;49.456;10.644;2023-04-24T07:58:56;11.60;99.90
30069;DHT22;16894;49.456;10.644;2023-04-24T08:01:22;11.60;99.90
30069;DHT22;16894;49.456;10.644;2023-04-24T08:03:47;11.80;99.90
30069;DHT22;16894;49.456;10.644;2023-04-24T08:06:13;11.70;99.90
30069;DHT22;16894;49.456;10.644;2023-04-24T08:08:38;11.80;99.90
30069;DHT22;16894;49.456;10.644;2023-04-24T08:11:04;11.90;99.90
30069;DHT22;16894;49.456;10.644;2023-04-24T08:13:29;12.20;99.90
30069;DHT22;16894;49.456;10.644;2023-04-24T08:15:56;12.50;99.90
30069;DHT22;16894;49.456;10.644;2023-04-24T08:18:22;12.50;99.90
30069;DHT22;16894;49.456;10.644;2023-04-24T08:20:47;12.50;99.90
30069;DHT22;16894;49.456;10.644;2023-04-24T08:23:13;12.20;99.90
30069;DHT22;16894;49.456;10.644;2023-04-24T08:25:39;12.20;99.90
30069;DHT22;16894;49.456;10.644;2023-04-24T08:28:05;12.10;99.90
30069;DHT22;16894;49.456;10.644;2023-04-24T08:30:31;11.80;99.90
30069;DHT22;16894;49.456;10.644;2023-04-24T08:32:57;11.70;99.90
30069;DHT22;16894;49.456;10.644;2023-04-24T08:35:23;11.50;99.90
30069;DHT22;16894;49.456;10.644;2023-04-24T08:37:48;11.20;99.90
30069;DHT22;16894;49.456;10.644;2023-04-24T08:40:15;11.30;99.90
30069;DHT22;16894;49.456;10.644;2023-04-24T08:42:43;11.40;99.90
30069;DHT22;16894;49.456;10.644;2023-04-24T08:45:10;11.50;99.90
30069;DHT22;16894;49.456;10.644;2023-04-24T08:47:37;11.70;99.90
30069;DHT22;16894;49.456;10.644;2023-04-24T08:50:03;12.40;99.90
30069;DHT22;16894;49.456;10.644;2023-04-24T08:52:32;12.80;99.90
30069;DHT22;16894;49.456;10.644;2023-04-24T08:54:58;13.30;99.90
30069;DHT22;16894;49.456;10.644;2023-04-24T08:57:25;13.30;99.90
30069;DHT22;16894;49.456;10.644;2023-04-24T08:59:51;13.00;99.90
30069;DHT22;16894;49.456;10.644;2023-04-24T09:02:17;12.70;99.90
30069;DHT22;16894;49.456;10.644;2023-04-24T09:04:43;12.50;99.90
30069;DHT22;16894;49.456;10.644;2023-04-24T09:07:09;12.30;99.90
30069;DHT22;16894;49.456;10.644;2023-04-24T09:09:35;12.20;99.90
30069;DHT22;16894;49.456;10.644;2023-04-24T09:12:01;12.30;99.90
30069;DHT22;16894;49.456;10.644;2023-04-24T09:14:28;12.30;99.90
30069;DHT22;16894;49.456;10.644;2023-04-24T09:16:56;12.40;99.90
30069;DHT22;16894;49.456;10.644;2023-04-24T09:19:22;12.70;99.90
30069;DHT22;16894;49.456;10.644;2023-04-24T09:21:47;13.20;99.90
30069;DHT22;16894;49.456;10.644;2023-04-24T09:24:17;13.90;99.90
30069;DHT22;16894;49.456;10.644;2023-04-24T09:26:44;14.50;98.30
30069;DHT22;16894;49.456;10.644;2023-04-24T09:29:14;14.70;98.00
30069;DHT22;16894;49.456;10.644;2023-04-24T09:31:40;15.40;97.50
30069;DHT22;16894;49.456;10.644;2023-04-24T09:34:06;15.70;95.30
30069;DHT22;16894;49.456;10.644;2023-04-24T09:36:33;15.60;94.60
30069;DHT22;16894;49.456;10.644;2023-04-24T09:39:02;15.00;95.10
30069;DHT22;16894;49.456;10.644;2023-04-24T09:41:29;14.10;94.60
30069;DHT22;16894;49.456;10.644;2023-04-24T09:43:56;13.30;94.20
30069;DHT22;16894;49.456;10.644;2023-04-24T09:46:28;13.10;95.00
30069;DHT22;16894;49.456;10.644;2023-04-24T09:48:54;13.10;95.30
30069;DHT22;16894;49.456;10.644;2023-04-24T09:51:19;13.30;95.70
30069;DHT22;16894;49.456;10.644;2023-04-24T09:53:58;14.10;95.80
30069;DHT22;16894;49.456;10.644;2023-04-24T09:56:23;15.30;93.30
30069;DHT22;16894;49.456;10.644;2023-04-24T09:58:50;15.70;93.10
30069;DHT22;16894;49.456;10.644;2023-04-24T10:01:16;16.40;91.40
30069;DHT22;16894;49.456;10.644;2023-04-24T10:03:41;16.50;91.70
30069;DHT22;16894;49.456;10.644;2023-04-24T10:06:07;15.70;92.70
30069;DHT22;16894;49.456;10.644;2023-04-24T10:08:36;14.60;94.50
30069;DHT22;16894;49.456;10.644;2023-04-24T10:11:02;13.80;95.30
30069;DHT22;16894;49.456;10.644;2023-04-24T10:13:28;13.30;97.50
30069;DHT22;16894;49.456;10.644;2023-04-24T10:15:54;12.70;98.20
30069;DHT22;16894;49.456;10.644;2023-04-24T10:18:20;12.30;99.30
30069;DHT22;16894;49.456;10.644;2023-04-24T10:20:46;11.80;99.90
30069;DHT22;16894;49.456;10.644;2023-04-24T10:23:11;11.50;99.90
30069;DHT22;16894;49.456;10.644;2023-04-24T10:25:37;11.30;99.90
30069;DHT22;16894;49.456;10.644;2023-04-24T10:28:03;11.30;99.90
30069;DHT22;16894;49.456;10.644;2023-04-24T10:30:33;11.50;99.90
30069;DHT22;16894;49.456;10.644;2023-04-24T10:33:02;11.50;99.90
30069;DHT22;16894;49.456;10.644;2023-04-24T10:35:30;11.40;99.90
30069;DHT22;16894;49.456;10.644;2023-04-24T10:37:56;11.30;99.90
30069;DHT22;16894;49.456;10.644;2023-04-24T10:40:26;11.30;99.60
30069;DHT22;16894;49.456;10.644;2023-04-24T10:42:52;11.40;99.90
30069;DHT22;16894;49.456;10.644;2023-04-24T10:45:21;11.60;99.90
30069;DHT22;16894;49.456;10.644;2023-04-24T10:48:06;11.80;99.90
30069;DHT22;16894;49.456;10.644;2023-04-24T10:50:43;12.40;99.90
30069;DHT22;16894;49.456;10.644;2023-04-24T10:53:19;13.20;98.70
30069;DHT22;16894;49.456;10.644;2023-04-24T10:55:52;13.90;98.30
30069;DHT22;16894;49.456;10.644;2023-04-24T10:58:22;14.80;96.70
30069;DHT22;16894;49.456;10.644;2023-04-24T11:00:55;15.80;95.20
30069;DHT22;16894;49.456;10.644;2023-04-24T11:03:29;15.90;93.80
30069;DHT22;16894;49.456;10.644;2023-04-24T11:05:56;14.90;93.00
30069;DHT22;16894;49.456;10.644;2023-04-24T11:08:22;14.40;94.40
30069;DHT22;16894;49.456;10.644;2023-04-24T11:13:24;15.10;93.20
30069;DHT22;16894;49.456;10.644;2023-04-24T11:18:37;15.90;93.40
30069;DHT22;16894;49.456;10.644;2023-04-24T11:21:09;14.80;92.80
30069;DHT22;16894;49.456;10.644;2023-04-24T11:23:36;13.80;94.10
30069;DHT22;16894;49.456;10.644;2023-04-24T11:26:18;13.10;95.10
30069;DHT22;16894;49.456;10.644;2023-04-24T11:28:48;12.80;96.20
30069;DHT22;16894;49.456;10.644;2023-04-24T11:31:34;12.80;96.50
30069;DHT22;16894;49.456;10.644;2023-04-24T11:34:09;13.00;96.20
30069;DHT22;16894;49.456;10.644;2023-04-24T11:36:36;13.20;96.20
30069;DHT22;16894;49.456;10.644;2023-04-24T11:39:02;13.50;95.60
30069;DHT22;16894;49.456;10.644;2023-04-24T11:41:27;13.80;95.80
30069;DHT22;16894;49.456;10.644;2023-04-24T11:43:53;14.20;95.50
30069;DHT22;16894;49.456;10.644;2023-04-24T11:46:26;14.60;95.10
30069;DHT22;16894;49.456;10.644;2023-04-24T11:48:51;14.70;93.80
30069;DHT22;16894;49.456;10.644;2023-04-24T11:51:17;14.50;94.20
30069;DHT22;16894;49.456;10.644;2023-04-24T11:53:42;13.80;94.00
30069;DHT22;16894;49.456;10.644;2023-04-24T11:56:08;13.50;95.30
30069;DHT22;16894;49.456;10.644;2023-04-24T11:58:35;14.10;95.20
30069;DHT22;16894;49.456;10.644;2023-04-24T12:01:01;14.60;93.80
30069;DHT22;16894;49.456;10.644;2023-04-24T12:03:26;14.50;93.70
30069;DHT22;16894;49.456;10.644;2023-04-24T12:05:52;14.20;94.30
30069;DHT22;16894;49.456;10.644;2023-04-24T12:08:31;14.10;94.80
30069;DHT22;16894;49.456;10.644;2023-04-24T12:10:57;13.80;95.00
30069;DHT22;16894;49.456;10.644;2023-04-24T12:13:25;13.80;93.70
30069;DHT22;16894;49.456;10.644;2023-04-24T12:15:50;13.60;95.30
30069;DHT22;16894;49.456;10.644;2023-04-24T12:18:16;13.90;94.50
30069;DHT22;16894;49.456;10.644;2023-04-24T12:20:44;13.50;94.90
30069;DHT22;16894;49.456;10.644;2023-04-24T12:23:10;13.50;94.80
30069;DHT22;16894;49.456;10.644;2023-04-24T12:25:35;13.30;94.60
30069;DHT22;16894;49.456;10.644;2023-04-24T12:30:39;13.70;95.40
30069;DHT22;16894;49.456;10.644;2023-04-24T12:33:05;14.50;94.50
30069;DHT22;16894;49.456;10.644;2023-04-24T12:35:32;15.30;94.00
30069;DHT22;16894;49.456;10.644;2023-04-24T12:38:05;16.60;92.40
30069;DHT22;16894;49.456;10.644;2023-04-24T12:40:31;17.10;90.80
30069;DHT22;16894;49.456;10.644;2023-04-24T12:42:57;15.90;90.60
30069;DHT22;16894;49.456;10.644;2023-04-24T12:45:22;15.10;92.20
30069;DHT22;16894;49.456;10.644;2023-04-24T12:47:50;14.20;92.80
30069;DHT22;16894;49.456;10.644;2023-04-24T12:50:17;13.30;93.60
30069;DHT22;16894;49.456;10.644;2023-04-24T12:52:43;12.80;94.60
30069;DHT22;16894;49.456;10.644;2023-04-24T12:55:09;12.60;95.50
30069;DHT22;16894;49.456;10.644;2023-04-24T12:57:35;12.40;96.10
30069;DHT22;16894;49.456;10.644;2023-04-24T13:00:01;12.50;96.30
30069;DHT22;16894;49.456;10.644;2023-04-24T13:02:28;12.40;96.10
30069;DHT22;16894;49.456;10.644;2023-04-24T13:04:56;12.60;96.10
30069;DHT22;16894;49.456;10.644;2023-04-24T13:07:21;12.60;95.90
30069;DHT22;16894;49.456;10.644;2023-04-24T13:09:47;12.80;96.00
30069;DHT22;16894;49.456;10.644;2023-04-24T13:12:14;12.70;96.50
30069;DHT22;16894;49.456;10.644;2023-04-24T13:14:39;12.30;96.50
30069;DHT22;16894;49.456;10.644;2023-04-24T13:17:05;11.30;99.90
30069;DHT22;16894;49.456;10.644;2023-04-24T13:19:36;10.60;99.90
30069;DHT22;16894;49.456;10.644;2023-04-24T13:22:03;10.20;99.90
30069;DHT22;16894;49.456;10.644;2023-04-24T13:24:28;10.10;99.90
30069;DHT22;16894;49.456;10.644;2023-04-24T13:26:54;10.20;99.90
30069;DHT22;16894;49.456;10.644;2023-04-24T13:29:21;10.40;99.90
30069;DHT22;16894;49.456;10.644;2023-04-24T13:31:47;10.90;99.90
30069;DHT22;16894;49.456;10.644;2023-04-24T13:34:13;11.60;99.90
30069;DHT22;16894;49.456;10.644;2023-04-24T13:36:38;12.50;99.90
30069;DHT22;16894;49.456;10.644;2023-04-24T13:39:04;13.20;99.90
30069;DHT22;16894;49.456;10.644;2023-04-24T13:41:30;14.20;99.00
30069;DHT22;16894;49.456;10.644;2023-04-24T13:43:56;15.10;97.20
30069;DHT22;16894;49.456;10.644;2023-04-24T13:46:21;15.40;96.50
30069;DHT22;16894;49.456;10.644;2023-04-24T13:48:47;15.90;95.40
30069;DHT22;16894;49.456;10.644;2023-04-24T13:51:12;16.70;94.60
30069;DHT22;16894;49.456;10.644;2023-04-24T13:53:38;16.50;93.20
30069;DHT22;16894;49.456;10.644;2023-04-24T13:56:04;15.70;94.00
30069;DHT22;16894;49.456;10.644;2023-04-24T13:58:31;15.20;94.90
30069;DHT22;16894;49.456;10.644;2023-04-24T14:00:57;14.60;95.10
30069;DHT22;16894;49.456;10.644;2023-04-24T14:03:24;14.50;95.70
30069;DHT22;16894;49.456;10.644;2023-04-24T14:05:50;14.30;96.30
30069;DHT22;16894;49.456;10.644;2023-04-24T14:08:15;14.00;96.20
30069;DHT22;16894;49.456;10.644;2023-04-24T14:10:42;14.40;95.90
30069;DHT22;16894;49.456;10.644;2023-04-24T14:13:07;15.80;95.00
30069;DHT22;16894;49.456;10.644;2023-04-24T14:15:35;16.80;91.50
30069;DHT22;16894;49.456;10.644;2023-04-24T14:18:00;17.20;90.60
30069;DHT22;16894;49.456;10.644;2023-04-24T14:20:26;17.40;88.90
30069;DHT22;16894;49.456;10.644;2023-04-24T14:22:51;17.50;88.40
30069;DHT22;16894;49.456;10.644;2023-04-24T14:25:18;18.30;88.50
30069;DHT22;16894;49.456;10.644;2023-04-24T14:27:44;19.00;88.20
30069;DHT22;16894;49.456;10.644;2023-04-24T14:30:09;20.30;81.70
30069;DHT22;16894;49.456;10.644;2023-04-24T14:32:35;21.90;74.90
30069;DHT22;16894;49.456;10.644;2023-04-24T14:35:01;22.40;71.00
30069;DHT22;16894;49.456;10.644;2023-04-24T14:37:26;19.90;75.20
30069;DHT22;16894;49.456;10.644;2023-04-24T14:39:52;19.70;74.40
30069;DHT22;16894;49.456;10.644;2023-04-24T14:42:18;19.90;75.70
30069;DHT22;16894;49.456;10.644;2023-04-24T14:44:43;20.50;73.70
30069;DHT22;16894;49.456;10.644;2023-04-24T14:47:09;21.10;72.20
30069;DHT22;16894;49.456;10.644;2023-04-24T14:49:34;19.90;73.70
30069;DHT22;16894;49.456;10.644;2023-04-24T14:52:00;20.00;73.50
30069;DHT22;16894;49.456;10.644;2023-04-24T14:54:26;19.70;74.00
30069;DHT22;16894;49.456;10.644;2023-04-24T14:56:51;18.60;76.90
30069;DHT22;16894;49.456;10.644;2023-04-24T14:59:17;18.30;77.60
30069;DHT22;16894;49.456;10.644;2023-04-24T15:01:42;19.00;76.40
30069;DHT22;16894;49.456;10.644;2023-04-24T15:04:08;18.40;75.60
30069;DHT22;16894;49.456;10.644;2023-04-24T15:06:34;17.50;76.70
30069;DHT22;16894;49.456;10.644;2023-04-24T15:09:00;17.10;76.20
30069;DHT22;16894;49.456;10.644;2023-04-24T15:11:25;16.40;78.80
30069;DHT22;16894;49.456;10.644;2023-04-24T15:13:51;16.00;80.70
30069;DHT22;16894;49.456;10.644;2023-04-24T15:16:17;15.90;80.00
30069;DHT22;16894;49.456;10.644;2023-04-24T15:18:42;15.30;81.50
30069;DHT22;16894;49.456;10.644;2023-04-24T15:21:08;14.70;82.60